Time;durP1;ratioP1;P1;durP2;ratioP2;P2;SDS_P1;SDS_P2;PMS_P1;PMS_P2;Temp;Humidity;BMP_temperature;BMP_pressure;BME280_temperature;BME280_humidity;BME280_pressure;Samples;Min_cycle;Max_cycle;Signal;HPM_P1;HPM_P2
2021/09/19 00:00:22;;;;;;;16.98;14.50;;;;;;;13.94;80.74;101685.41;5065404;28;20037;-62
2021/09/19 00:02:48;;;;;;;15.68;13.90;;;;;;;13.92;81.41;101695.97;5065152;28;20025;-63
2021/09/19 00:05:14;;;;;;;18.50;14.48;;;;;;;13.91;81.38;101695.97;5063993;28;20099;-62
2021/09/19 00:07:40;;;;;;;19.50;14.27;;;;;;;13.92;80.91;101695.97;5064583;28;20105;-62
2021/09/19 00:10:08;;;;;;;19.52;13.75;;;;;;;13.92;81.18;101695.13;5061318;28;20048;-62
2021/09/19 00:12:34;;;;;;;18.50;14.63;;;;;;;13.88;81.00;101694.25;5063395;28;20415;-62
2021/09/19 00:15:00;;;;;;;16.30;13.95;;;;;;;13.84;80.90;101693.38;5063877;28;20032;-61
2021/09/19 00:17:25;;;;;;;18.40;14.48;;;;;;;13.79;81.26;101692.47;5064116;28;20052;-63
2021/09/19 00:19:50;;;;;;;19.70;14.43;;;;;;;13.78;81.26;101692.47;5064119;28;20625;-62
2021/09/19 00:22:16;;;;;;;16.92;13.73;;;;;;;13.75;80.99;101682.81;5063902;28;20040;-61
2021/09/19 00:24:42;;;;;;;18.35;13.43;;;;;;;13.75;81.21;101687.22;5065342;28;20045;-61
2021/09/19 00:27:07;;;;;;;18.58;14.48;;;;;;;13.79;80.75;101679.28;5064959;28;20029;-62
2021/09/19 00:29:32;;;;;;;18.45;13.85;;;;;;;13.77;80.98;101681.03;5064804;28;20029;-61
2021/09/19 00:31:58;;;;;;;16.55;13.27;;;;;;;13.76;81.04;101679.28;5065597;28;20036;-61
2021/09/19 00:34:23;;;;;;;17.10;12.77;;;;;;;13.74;81.10;101681.06;5063727;28;20073;-62
2021/09/19 00:36:49;;;;;;;16.25;12.73;;;;;;;13.74;80.68;101674.88;5064409;28;20048;-62
2021/09/19 00:39:15;;;;;;;15.98;13.32;;;;;;;13.72;80.96;101671.38;5062170;28;20033;-62
2021/09/19 00:41:40;;;;;;;16.13;13.02;;;;;;;13.69;81.15;101679.31;5062961;28;20029;-61
2021/09/19 00:44:08;;;;;;;13.63;11.82;;;;;;;13.77;80.41;101670.47;5064169;28;20045;-62
2021/09/19 00:46:34;;;;;;;14.35;11.95;;;;;;;13.77;80.07;101670.47;5064380;28;20032;-62
2021/09/19 00:49:00;;;;;;;16.63;12.85;;;;;;;13.68;80.61;101665.19;5064121;28;20021;-62
2021/09/19 00:51:28;;;;;;;15.23;12.68;;;;;;;13.65;80.81;101673.16;5063894;28;20021;-62
2021/09/19 00:53:56;;;;;;;14.95;12.02;;;;;;;13.70;80.46;101667.84;5063319;28;20029;-61
2021/09/19 00:56:25;;;;;;;19.27;12.55;;;;;;;13.68;80.30;101672.25;5064192;28;20484;-61
2021/09/19 00:58:53;;;;;;;14.85;11.95;;;;;;;13.62;80.97;101671.38;5063355;28;20029;-61
2021/09/19 01:01:19;;;;;;;16.23;12.38;;;;;;;13.56;80.68;101675.78;5063752;28;20024;-61
2021/09/19 01:03:45;;;;;;;14.68;11.65;;;;;;;13.50;81.05;101676.69;5063449;28;20497;-62
2021/09/19 01:06:11;;;;;;;14.10;11.88;;;;;;;13.44;81.20;101674.03;5063366;28;20037;-61
2021/09/19 01:08:42;;;;;;;13.77;11.32;;;;;;;13.45;81.11;101671.38;5062150;28;20029;-61
2021/09/19 01:11:09;;;;;;;15.32;12.27;;;;;;;13.39;80.95;101668.75;5061901;28;20040;-61
2021/09/19 01:13:34;;;;;;;14.90;12.10;;;;;;;13.37;81.27;101664.38;5064055;28;20032;-61
2021/09/19 01:16:01;;;;;;;12.95;11.25;;;;;;;13.35;81.26;101659.06;5062948;28;20028;-62
2021/09/19 01:18:26;;;;;;;13.95;11.18;;;;;;;13.33;81.42;101657.34;5063095;28;20029;-61
2021/09/19 01:20:52;;;;;;;14.15;11.65;;;;;;;13.30;81.26;101665.19;5062852;28;20124;-62
2021/09/19 01:23:17;;;;;;;13.35;11.20;;;;;;;13.36;80.94;101658.19;5063057;28;20037;-64
2021/09/19 01:25:44;;;;;;;14.15;11.60;;;;;;;13.30;81.43;101657.28;5063720;28;20627;-62
2021/09/19 01:28:11;;;;;;;13.27;11.00;;;;;;;13.25;81.30;101650.25;5062921;28;20037;-62
2021/09/19 01:30:36;;;;;;;15.02;11.25;;;;;;;13.22;81.65;101649.38;5062750;28;20396;-61
2021/09/19 01:33:03;;;;;;;12.85;10.80;;;;;;;13.21;81.31;101651.13;5063524;28;20124;-62
2021/09/19 01:35:30;;;;;;;13.75;11.07;;;;;;;13.20;81.70;101641.44;5062796;28;20060;-61
2021/09/19 01:37:57;;;;;;;14.18;10.75;;;;;;;13.19;81.72;101644.94;5063581;28;20063;-61
2021/09/19 01:40:22;;;;;;;13.52;10.70;;;;;;;13.15;81.89;101637.03;5055110;28;20044;-62
2021/09/19 01:42:48;;;;;;;12.82;11.07;;;;;;;13.11;82.36;101641.44;5062840;28;20045;-62
2021/09/19 01:45:13;;;;;;;12.18;10.85;;;;;;;13.11;82.23;101640.56;5063079;28;20029;-62
2021/09/19 01:47:39;;;;;;;15.82;11.68;;;;;;;13.10;82.22;101634.41;5063304;28;20047;-61
2021/09/19 01:50:06;;;;;;;14.90;11.23;;;;;;;13.08;81.92;101638.81;5062451;28;20039;-62
2021/09/19 01:52:31;;;;;;;13.68;11.60;;;;;;;13.05;82.19;101637.03;5062570;28;20036;-60
2021/09/19 01:54:58;;;;;;;12.90;11.20;;;;;;;13.04;82.19;101634.38;5062768;28;20104;-62
2021/09/19 01:57:24;;;;;;;13.40;10.75;;;;;;;13.05;82.22;101641.44;5062595;28;20028;-62
2021/09/19 01:59:51;;;;;;;13.70;11.55;;;;;;;13.03;82.33;101633.53;5062917;28;20032;-61
2021/09/19 02:02:17;;;;;;;13.90;10.93;;;;;;;13.02;82.54;101646.69;5062392;28;20043;-62
2021/09/19 02:04:42;;;;;;;12.13;10.20;;;;;;;13.06;82.38;101643.19;5062497;28;20037;-61
2021/09/19 02:07:08;;;;;;;12.15;10.75;;;;;;;13.03;82.37;101640.56;5062569;28;20033;-61
2021/09/19 02:09:33;;;;;;;12.65;10.85;;;;;;;13.02;82.56;101639.69;5060407;28;20104;-61
2021/09/19 02:11:59;;;;;;;13.27;10.68;;;;;;;13.01;82.48;101635.28;5063404;28;20040;-62
2021/09/19 02:14:24;;;;;;;13.93;11.90;;;;;;;12.97;82.58;101627.38;5062138;28;20131;-62
2021/09/19 02:16:49;;;;;;;12.43;10.95;;;;;;;13.01;82.26;101629.13;5062707;28;20033;-61
2021/09/19 02:19:16;;;;;;;14.82;11.48;;;;;;;12.99;82.54;101628.25;5059413;28;20536;-61
2021/09/19 02:21:42;;;;;;;11.90;10.68;;;;;;;12.96;82.71;101631.75;5061384;28;20120;-62
2021/09/19 02:24:07;;;;;;;14.57;11.35;;;;;;;12.99;82.44;101617.69;5062753;28;20040;-61
2021/09/19 02:26:32;;;;;;;13.80;11.20;;;;;;;12.93;83.01;101622.94;5063056;28;20025;-61
2021/09/19 02:28:58;;;;;;;14.55;11.60;;;;;;;12.92;82.67;101624.72;5061734;28;20072;-62
2021/09/19 02:31:23;;;;;;;13.43;11.10;;;;;;;12.90;82.73;101631.75;5062300;28;20040;-62
2021/09/19 02:33:49;;;;;;;14.13;11.80;;;;;;;12.86;82.77;101628.22;5062082;28;20033;-62
2021/09/19 02:36:14;;;;;;;13.32;11.75;;;;;;;12.81;82.97;101627.31;5062539;28;20040;-61
2021/09/19 02:38:39;;;;;;;13.20;11.65;;;;;;;12.81;83.43;101621.19;5061805;28;20033;-61
2021/09/19 02:41:05;;;;;;;15.90;12.05;;;;;;;12.80;82.91;101624.72;5060745;28;20040;-61
2021/09/19 02:43:30;;;;;;;14.80;12.80;;;;;;;12.80;83.62;101627.34;5062206;28;20069;-61
2021/09/19 02:45:56;;;;;;;15.93;12.23;;;;;;;12.80;83.39;101614.16;5062449;28;20102;-61
2021/09/19 02:48:22;;;;;;;14.77;11.90;;;;;;;12.76;83.26;101621.19;5063383;28;20048;-61
2021/09/19 02:50:47;;;;;;;13.43;11.85;;;;;;;12.75;83.07;101626.44;5093878;28;20044;-61
2021/09/19 02:53:12;;;;;;;16.83;13.20;;;;;;;12.70;83.70;101615.88;5062009;28;20115;-60
2021/09/19 02:55:38;;;;;;;14.10;12.15;;;;;;;12.69;83.52;101616.78;5061068;28;20028;-61
2021/09/19 02:58:03;;;;;;;14.38;12.88;;;;;;;12.68;83.76;101613.25;5063145;28;20029;-60
2021/09/19 03:00:29;;;;;;;14.60;12.25;;;;;;;12.69;83.59;101614.13;5061403;28;20070;-61
2021/09/19 03:02:54;;;;;;;15.05;12.93;;;;;;;12.67;83.85;101615.91;5062626;28;20029;-61
2021/09/19 03:05:20;;;;;;;15.80;13.05;;;;;;;12.67;83.86;101607.97;5062342;28;20032;-61
2021/09/19 03:07:46;;;;;;;16.73;12.75;;;;;;;12.71;83.88;101614.16;5062790;28;20048;-61
2021/09/19 03:10:13;;;;;;;15.98;12.68;;;;;;;12.72;83.65;101611.53;5060061;28;20074;-61
2021/09/19 03:12:39;;;;;;;15.07;12.57;;;;;;;12.71;83.65;101620.28;5062135;28;20025;-61
2021/09/19 03:15:06;;;;;;;17.25;13.70;;;;;;;12.69;84.19;101616.78;5061871;28;20025;-62
2021/09/19 03:17:31;;;;;;;16.48;13.38;;;;;;;12.69;83.96;101616.78;5061234;28;20124;-60
2021/09/19 03:19:57;;;;;;;15.50;13.13;;;;;;;12.66;83.96;101615.03;5062065;28;20049;-61
2021/09/19 03:22:22;;;;;;;17.35;13.57;;;;;;;12.65;83.48;101617.66;5061524;28;20037;-60
2021/09/19 03:24:47;;;;;;;15.02;13.00;;;;;;;12.65;83.66;101613.25;5062365;28;20041;-61
2021/09/19 03:27:14;;;;;;;16.90;13.45;;;;;;;12.60;84.07;101607.06;5062330;28;20068;-61
2021/09/19 03:29:40;;;;;;;18.17;14.63;;;;;;;12.58;84.44;101602.69;5061641;28;20074;-61
2021/09/19 03:32:05;;;;;;;16.33;14.18;;;;;;;12.59;84.49;101607.97;5066462;28;20096;-61
2021/09/19 03:34:33;;;;;;;17.98;13.63;;;;;;;12.56;84.14;101602.69;5065428;28;20055;-61
2021/09/19 03:37:00;;;;;;;17.27;14.40;;;;;;;12.58;84.64;101606.19;5064759;28;20025;-61
2021/09/19 03:39:25;;;;;;;17.58;14.48;;;;;;;12.55;84.32;101614.13;5058311;28;20025;-62
2021/09/19 03:41:50;;;;;;;17.25;15.05;;;;;;;12.55;84.70;101600.94;5065891;28;20039;-61
2021/09/19 03:44:16;;;;;;;16.77;14.18;;;;;;;12.54;84.25;101612.34;5065839;28;20606;-60
2021/09/19 03:46:41;;;;;;;15.98;14.00;;;;;;;12.53;84.52;101599.16;5066662;28;20040;-61
2021/09/19 03:49:06;;;;;;;19.27;14.57;;;;;;;12.51;84.11;101593.88;5064531;28;20032;-60
2021/09/19 03:51:32;;;;;;;17.23;14.73;;;;;;;12.51;84.63;101595.63;5064831;28;20055;-61
2021/09/19 03:53:57;;;;;;;16.75;14.05;;;;;;;12.53;84.55;101596.50;5064565;28;20021;-61
2021/09/19 03:56:22;;;;;;;18.23;14.73;;;;;;;12.50;84.60;101588.63;5065570;28;20063;-61
2021/09/19 03:58:49;;;;;;;19.13;14.77;;;;;;;12.46;84.45;101587.72;5065768;28;20033;-60
2021/09/19 04:01:15;;;;;;;17.90;15.35;;;;;;;12.43;84.51;101583.31;5064491;28;20040;-61
2021/09/19 04:03:40;;;;;;;18.90;15.10;;;;;;;12.39;84.43;101588.59;5065930;28;20035;-60
2021/09/19 04:06:05;;;;;;;20.83;15.75;;;;;;;12.38;84.85;101587.72;5064479;28;20124;-61
2021/09/19 04:08:31;;;;;;;20.20;14.40;;;;;;;12.38;84.91;101582.44;5065357;28;20360;-61
2021/09/19 04:10:56;;;;;;;17.60;14.90;;;;;;;12.45;84.82;101585.97;5062824;28;20143;-61
2021/09/19 04:13:22;;;;;;;18.05;15.75;;;;;;;12.43;85.06;101580.69;5064605;28;20538;-60
2021/09/19 04:15:47;;;;;;;20.80;16.50;;;;;;;12.39;85.23;101580.69;5064626;28;20025;-61
2021/09/19 04:18:14;;;;;;;18.40;14.75;;;;;;;12.39;85.11;101581.56;5064576;28;20127;-60
2021/09/19 04:20:40;;;;;;;19.65;16.00;;;;;;;12.42;85.14;101584.19;5063671;28;20052;-61
2021/09/19 04:23:05;;;;;;;17.27;15.02;;;;;;;12.45;84.46;101578.91;5064164;28;20039;-61
2021/09/19 04:25:30;;;;;;;19.90;15.65;;;;;;;12.43;85.28;101577.16;5065019;28;20102;-62
2021/09/19 04:27:56;;;;;;;19.50;16.20;;;;;;;12.40;85.30;101578.06;5064810;28;20036;-61
2021/09/19 04:30:21;;;;;;;19.88;16.00;;;;;;;12.35;85.10;101579.78;5064074;28;20036;-61
2021/09/19 04:32:47;;;;;;;19.33;16.50;;;;;;;12.36;84.88;101572.75;5064302;28;20033;-61
2021/09/19 04:35:12;;;;;;;19.10;15.60;;;;;;;12.33;84.92;101571.00;5063987;28;20029;-61
2021/09/19 04:37:38;;;;;;;20.08;16.23;;;;;;;12.28;85.27;101583.28;5064153;28;20476;-62
2021/09/19 04:40:06;;;;;;;20.88;17.40;;;;;;;12.26;85.52;101583.25;5062422;28;20029;-61
2021/09/19 04:42:31;;;;;;;21.13;16.65;;;;;;;12.25;85.83;101584.16;5064104;28;20063;-61
2021/09/19 04:44:57;;;;;;;20.20;16.65;;;;;;;12.28;85.83;101584.16;5064063;28;20464;-61
2021/09/19 04:47:22;;;;;;;20.63;16.33;;;;;;;12.25;85.46;101589.44;5064375;28;20030;-61
2021/09/19 04:49:48;;;;;;;19.83;16.70;;;;;;;12.22;85.50;101594.69;5063719;28;20036;-62
2021/09/19 04:52:13;;;;;;;21.45;16.85;;;;;;;12.23;85.10;101590.28;5063480;28;20028;-61
2021/09/19 04:54:38;;;;;;;19.23;15.63;;;;;;;12.21;85.39;101586.75;5063132;28;20056;-62
2021/09/19 04:57:04;;;;;;;21.15;16.92;;;;;;;12.21;85.85;101592.94;5064380;28;20025;-62
2021/09/19 04:59:29;;;;;;;21.90;16.73;;;;;;;12.20;85.37;101583.25;5063290;28;20087;-60
2021/09/19 05:01:55;;;;;;;21.00;16.45;;;;;;;12.16;84.88;101588.53;5063241;28;20032;-61
2021/09/19 05:04:20;;;;;;;22.85;17.58;;;;;;;12.13;85.75;101581.47;5063570;28;20025;-60
2021/09/19 05:06:46;;;;;;;21.08;16.90;;;;;;;12.11;85.61;101583.22;5064333;28;20029;-61
2021/09/19 05:09:11;;;;;;;22.23;16.90;;;;;;;12.11;85.92;101588.47;5062506;28;20051;-60
2021/09/19 05:11:37;;;;;;;20.50;16.73;;;;;;;12.11;85.67;101580.59;5062545;28;20036;-61
2021/09/19 05:14:03;;;;;;;22.15;17.65;;;;;;;12.09;85.96;101588.47;5063274;28;20033;-61
2021/09/19 05:16:28;;;;;;;21.02;17.40;;;;;;;12.08;86.01;101588.50;5063908;28;20036;-61
2021/09/19 05:18:57;;;;;;;24.55;17.45;;;;;;;12.09;85.92;101584.97;5062660;28;20033;-60
2021/09/19 05:21:23;;;;;;;21.75;17.83;;;;;;;12.08;85.77;101584.09;5063590;28;20072;-61
2021/09/19 05:23:49;;;;;;;23.17;18.27;;;;;;;12.10;86.04;101592.00;5063047;28;20037;-61
2021/09/19 05:26:14;;;;;;;21.48;17.10;;;;;;;12.10;85.76;101581.47;5063045;28;20068;-61
2021/09/19 05:28:40;;;;;;;23.02;17.35;;;;;;;12.11;85.97;101579.72;5063414;28;20051;-60
2021/09/19 05:31:05;;;;;;;22.83;17.38;;;;;;;12.12;85.97;101581.44;5064805;28;20093;-61
2021/09/19 05:33:31;;;;;;;21.88;17.30;;;;;;;12.12;86.00;101584.09;5063611;28;20056;-61
2021/09/19 05:35:56;;;;;;;21.60;17.05;;;;;;;12.14;85.99;101583.25;5063183;28;20029;-60
2021/09/19 05:38:22;;;;;;;22.10;16.45;;;;;;;12.19;85.25;101588.50;5063145;28;20021;-61
2021/09/19 05:40:47;;;;;;;23.45;16.85;;;;;;;12.16;85.65;101581.50;5060824;28;20061;-60
2021/09/19 05:43:13;;;;;;;20.30;16.92;;;;;;;12.16;85.53;101588.53;5063278;28;20215;-61
2021/09/19 05:45:38;;;;;;;20.17;16.83;;;;;;;12.14;85.70;101593.78;5062676;28;20044;-61
2021/09/19 05:48:04;;;;;;;21.40;17.15;;;;;;;12.15;85.65;101592.00;5062806;28;20029;-61
2021/09/19 05:50:29;;;;;;;21.35;16.75;;;;;;;12.14;85.76;101592.91;5062620;28;20841;-60
2021/09/19 05:52:55;;;;;;;22.15;17.42;;;;;;;12.15;85.70;101595.50;5061712;28;20029;-60
2021/09/19 05:55:20;;;;;;;20.33;16.38;;;;;;;12.18;85.64;101602.56;5063385;28;20044;-61
2021/09/19 05:57:46;;;;;;;20.08;16.65;;;;;;;12.20;85.86;101600.81;5063385;28;20037;-61
2021/09/19 06:00:12;;;;;;;21.20;17.83;;;;;;;12.23;85.94;101595.53;5062214;28;20086;-61
2021/09/19 06:02:38;;;;;;;20.90;17.75;;;;;;;12.24;85.93;101595.56;5062818;28;20049;-60
2021/09/19 06:05:05;;;;;;;20.73;17.45;;;;;;;12.26;86.02;101590.28;5061076;28;20075;-61
2021/09/19 06:07:30;;;;;;;21.48;17.45;;;;;;;12.29;86.02;101600.84;5063441;28;20060;-61
2021/09/19 06:09:55;;;;;;;22.85;17.45;;;;;;;12.33;85.99;101596.47;5059916;28;20036;-60
2021/09/19 06:12:21;;;;;;;22.00;17.13;;;;;;;12.36;85.75;101596.47;5062421;28;20092;-60
2021/09/19 06:14:46;;;;;;;20.83;16.88;;;;;;;12.38;85.55;101595.63;5062288;28;20057;-61
2021/09/19 06:17:12;;;;;;;22.33;16.58;;;;;;;12.42;85.54;101597.38;5063061;28;20029;-61
2021/09/19 06:19:38;;;;;;;23.25;17.90;;;;;;;12.45;85.56;101602.66;5062712;28;20044;-61
2021/09/19 06:22:04;;;;;;;19.75;16.52;;;;;;;12.50;85.30;101602.66;5062084;28;20033;-61
2021/09/19 06:24:30;;;;;;;22.90;17.80;;;;;;;12.54;85.53;101608.84;5061058;28;20028;-60
2021/09/19 06:26:58;;;;;;;20.08;16.38;;;;;;;12.57;85.38;101607.09;5062458;28;20036;-61
2021/09/19 06:29:24;;;;;;;20.15;16.55;;;;;;;12.66;85.27;101600.94;5062381;28;20029;-61
2021/09/19 06:31:49;;;;;;;18.40;15.48;;;;;;;12.71;84.97;101593.06;5062488;28;20623;-61
2021/09/19 06:34:14;;;;;;;21.05;16.52;;;;;;;12.76;84.95;101597.47;5062088;28;20037;-61
2021/09/19 06:36:40;;;;;;;18.02;15.50;;;;;;;12.83;84.39;101587.78;5062903;28;20032;-60
2021/09/19 06:39:05;;;;;;;17.67;15.23;;;;;;;12.93;83.67;101584.28;5061311;28;21676;-61
2021/09/19 06:41:31;;;;;;;22.73;16.77;;;;;;;12.99;83.99;101592.19;5061786;28;20036;-61
2021/09/19 06:43:56;;;;;;;18.15;15.05;;;;;;;13.04;84.20;101601.00;5062493;28;20059;-61
2021/09/19 06:46:23;;;;;;;18.85;15.32;;;;;;;13.16;84.26;101604.50;5061819;28;20123;-61
2021/09/19 06:48:49;;;;;;;20.52;15.45;;;;;;;13.27;83.60;101608.91;5060497;28;20025;-61
2021/09/19 06:51:14;;;;;;;18.13;15.05;;;;;;;13.41;83.24;101618.59;5061642;28;20045;-61
2021/09/19 06:53:39;;;;;;;18.70;15.50;;;;;;;13.54;82.02;101616.84;5061848;28;20044;-61
2021/09/19 06:56:05;;;;;;;17.60;13.80;;;;;;;13.63;81.03;101620.31;5058092;28;20036;-61
2021/09/19 06:58:31;;;;;;;17.77;14.82;;;;;;;13.78;81.65;101608.84;5059995;28;20036;-61
2021/09/19 07:00:56;;;;;;;16.00;14.30;;;;;;;13.92;80.47;101616.72;5061613;28;20092;-61
2021/09/19 07:03:22;;;;;;;18.20;14.27;;;;;;;14.06;80.42;101624.59;5059825;28;20025;-61
2021/09/19 07:05:47;;;;;;;15.45;13.55;;;;;;;14.15;79.96;101621.91;5064939;28;20055;-61
2021/09/19 07:08:12;;;;;;;15.50;13.55;;;;;;;14.22;79.93;101621.00;5064194;28;20037;-61
2021/09/19 07:10:38;;;;;;;15.48;13.75;;;;;;;14.35;79.36;101620.97;5065167;28;20032;-61
2021/09/19 07:13:03;;;;;;;16.45;14.00;;;;;;;14.41;78.57;101621.81;5065513;28;20028;-61
2021/09/19 07:15:29;;;;;;;15.63;13.68;;;;;;;14.54;78.54;101624.41;5063203;28;20566;-61
2021/09/19 07:17:54;;;;;;;15.98;13.15;;;;;;;14.67;77.76;101618.19;5066614;28;20033;-62
2021/09/19 07:20:19;;;;;;;14.38;12.88;;;;;;;14.82;78.16;101626.00;5064715;28;20060;-62
2021/09/19 07:22:46;;;;;;;17.02;12.40;;;;;;;14.97;77.88;101629.41;5063908;28;20057;-61
2021/09/19 07:25:12;;;;;;;15.88;13.30;;;;;;;15.08;77.21;101629.34;5063083;28;20067;-61
2021/09/19 07:27:38;;;;;;;13.68;12.27;;;;;;;15.16;76.90;101631.06;5063416;28;20151;-61
2021/09/19 07:30:04;;;;;;;14.68;12.68;;;;;;;15.37;75.79;101631.78;5065746;28;20029;-62
2021/09/19 07:32:31;;;;;;;14.18;12.27;;;;;;;15.49;75.38;101625.47;5064028;28;20029;-61
2021/09/19 07:34:57;;;;;;;15.52;12.50;;;;;;;15.53;76.30;101633.34;5063008;28;20025;-61
2021/09/19 07:37:23;;;;;;;14.43;11.77;;;;;;;15.54;75.33;101621.88;5065772;28;20052;-61
2021/09/19 07:39:49;;;;;;;15.48;12.27;;;;;;;15.62;74.46;101624.44;5063658;28;20029;-61
2021/09/19 07:42:15;;;;;;;12.60;11.15;;;;;;;15.67;74.87;101621.75;5063280;28;20491;-60
2021/09/19 07:44:40;;;;;;;13.25;11.57;;;;;;;15.73;75.27;101625.25;5060635;28;20052;-60
2021/09/19 07:47:06;;;;;;;12.90;11.50;;;;;;;15.83;75.67;101620.72;5065712;28;20080;-60
2021/09/19 07:49:36;;;;;;;12.27;10.77;;;;;;;15.94;74.41;101624.13;5065912;28;20048;-61
2021/09/19 07:52:03;;;;;;;9.98;9.00;;;;;;;16.02;74.52;101617.88;5065295;28;20017;-60
2021/09/19 07:54:29;;;;;;;12.32;10.93;;;;;;;16.05;73.96;101615.16;5062412;28;20028;-60
2021/09/19 07:56:54;;;;;;;11.95;10.70;;;;;;;16.06;72.70;101612.50;5065763;28;20094;-61
2021/09/19 07:59:20;;;;;;;11.25;10.05;;;;;;;16.06;72.82;101619.59;5059658;28;20025;-60
2021/09/19 08:01:46;;;;;;;10.82;9.68;;;;;;;16.08;72.73;101617.78;5069874;28;20040;-62
2021/09/19 08:04:11;;;;;;;11.18;9.45;;;;;;;16.19;72.70;101613.22;5070885;28;20033;-61
2021/09/19 08:06:37;;;;;;;11.13;9.52;;;;;;;16.30;72.51;101613.97;5077300;28;20029;-60
2021/09/19 08:09:03;;;;;;;10.02;9.02;;;;;;;16.41;71.43;101615.59;5075990;28;20024;-60
2021/09/19 08:11:28;;;;;;;9.82;8.82;;;;;;;16.49;72.00;101617.25;5077398;28;20031;-61
2021/09/19 08:13:57;;;;;;;12.60;9.10;;;;;;;16.60;71.16;101619.75;5070649;28;20136;-60
2021/09/19 08:16:23;;;;;;;10.73;8.60;;;;;;;16.73;71.25;101613.38;5072085;28;20060;-62
2021/09/19 08:18:48;;;;;;;10.02;8.63;;;;;;;16.82;70.47;101609.72;5072504;28;20733;-59
2021/09/19 08:21:13;;;;;;;8.38;7.57;;;;;;;16.91;70.14;101608.72;5063408;28;20033;-60
2021/09/19 08:23:39;;;;;;;9.38;8.32;;;;;;;16.98;69.34;101617.47;5064241;28;20041;-60
2021/09/19 08:26:04;;;;;;;8.60;7.28;;;;;;;17.05;70.39;101622.66;5064193;28;20025;-60
2021/09/19 08:28:29;;;;;;;9.63;7.32;;;;;;;17.15;69.16;101626.91;5064277;28;20033;-61
2021/09/19 08:30:55;;;;;;;7.88;7.00;;;;;;;17.24;68.71;101635.59;5063264;28;20021;-60
2021/09/19 08:33:26;;;;;;;9.35;7.32;;;;;;;17.27;67.96;101627.59;5064270;28;20064;-60
2021/09/19 08:35:52;;;;;;;7.85;6.82;;;;;;;17.26;67.28;101626.72;5064579;28;20029;-61
2021/09/19 08:38:17;;;;;;;7.03;6.40;;;;;;;17.26;67.79;101618.75;5064520;28;20025;-61
2021/09/19 08:40:43;;;;;;;9.60;6.57;;;;;;;17.34;68.20;101621.28;5059846;28;20025;-61
2021/09/19 08:43:08;;;;;;;9.38;6.57;;;;;;;17.51;68.49;101621.84;5054373;28;20044;-62
2021/09/19 08:45:33;;;;;;;12.65;7.03;;;;;;;17.57;67.19;101626.19;5061184;28;20032;-61
2021/09/19 08:47:59;;;;;;;9.23;6.78;;;;;;;17.61;66.96;101627.88;5061631;28;20029;-62
2021/09/19 08:50:24;;;;;;;6.93;6.22;;;;;;;17.69;66.91;101625.97;5061717;28;20036;-61
2021/09/19 08:52:50;;;;;;;7.15;6.45;;;;;;;17.77;67.27;101627.56;5058369;28;20035;-62
2021/09/19 08:55:16;;;;;;;7.63;6.72;;;;;;;17.81;65.83;101631.94;5058589;28;20029;-61
2021/09/19 08:57:41;;;;;;;7.22;6.20;;;;;;;17.78;65.54;101635.53;5065088;28;20395;-61
2021/09/19 09:00:11;;;;;;;7.45;6.30;;;;;;;17.77;65.46;101633.78;5065752;28;20044;-62
2021/09/19 09:02:54;;;;;;;;;;;;;;;17.66;65.00;101635.78;5062865;28;20114;-60
2021/09/19 09:05:22;;;;;;;8.02;5.53;;;;;;;17.68;65.64;101641.94;5058706;28;19931;-62
2021/09/19 09:07:56;;;;;;;6.55;5.95;;;;;;;17.70;65.45;101637.47;5059780;28;20025;-61
2021/09/19 09:10:30;;;;;;;6.30;5.70;;;;;;;17.68;65.26;101636.63;5058224;28;20075;-61
2021/09/19 09:13:08;;;;;;;7.25;5.70;;;;;;;17.72;66.69;101636.50;5064719;28;20473;-61
2021/09/19 09:15:45;;;;;;;6.80;5.70;;;;;;;17.84;66.51;101638.09;5060919;28;20224;-61
2021/09/19 09:18:26;;;;;;;8.15;5.75;;;;;;;17.98;66.22;101639.63;5058879;28;20067;-61
2021/09/19 09:20:58;;;;;;;7.10;6.40;;;;;;;17.92;65.04;101644.16;5062644;28;20033;-61
2021/09/19 09:23:32;;;;;;;7.85;5.78;;;;;;;17.94;65.74;101638.81;5061801;28;20020;-63
2021/09/19 09:26:10;;;;;;;6.97;6.15;;;;;;;17.84;65.78;101643.41;5060319;28;20085;-61
2021/09/19 09:29:01;;;;;;;7.53;6.28;;;;;;;17.82;65.34;101647.84;5061493;28;20025;-61
2021/09/19 09:31:29;;;;;;;8.40;5.85;;;;;;;17.85;65.50;101647.84;5065369;28;20040;-61
2021/09/19 09:33:57;;;;;;;8.13;6.22;;;;;;;17.86;65.31;101644.28;5060456;28;20044;-62
2021/09/19 09:36:30;;;;;;;6.97;6.28;;;;;;;17.79;65.29;101647.03;5050121;28;20025;-61
2021/09/19 09:38:56;;;;;;;6.97;6.28;;;;;;;17.73;66.10;101643.59;5045001;28;20391;-61
2021/09/19 09:41:37;;;;;;;7.18;6.47;;;;;;;17.88;66.35;101642.47;5058087;28;20052;-62
2021/09/19 09:44:03;;;;;;;6.50;5.32;;;;;;;18.03;66.81;101646.56;5063158;28;20040;-61
2021/09/19 09:46:28;;;;;;;8.52;6.07;;;;;;;18.14;65.49;101657.00;5055805;28;20056;-61
2021/09/19 09:48:53;;;;;;;9.35;6.32;;;;;;;18.20;65.27;101648.03;5050529;28;20037;-62
2021/09/19 09:51:22;;;;;;;7.07;6.30;;;;;;;18.25;65.33;101652.34;5053617;28;20044;-62
2021/09/19 09:54:15;;;;;;;7.10;6.40;;;;;;;18.23;65.70;101648.84;5061104;28;20025;-61
2021/09/19 09:56:43;;;;;;;7.35;6.22;;;;;;;18.25;66.00;101652.34;5054124;28;20062;-61
2021/09/19 09:59:10;;;;;;;7.78;6.13;;;;;;;18.28;63.88;101644.31;5058045;28;20033;-61
2021/09/19 10:01:37;;;;;;;6.97;6.20;;;;;;;18.30;64.47;101655.81;5058889;28;20025;-62
2021/09/19 10:04:04;;;;;;;6.32;5.63;;;;;;;18.30;64.21;101652.28;5058168;28;20100;-61
2021/09/19 10:06:30;;;;;;;6.25;5.65;;;;;;;18.25;64.31;101647.03;5056317;28;20092;-61
2021/09/19 10:08:56;;;;;;;8.82;6.32;;;;;;;18.34;64.51;101647.75;5059090;28;20033;-62
2021/09/19 10:11:22;;;;;;;9.65;6.70;;;;;;;18.38;63.98;101646.78;5060349;28;20040;-61
2021/09/19 10:13:49;;;;;;;6.72;6.03;;;;;;;18.39;64.17;101652.09;5057856;28;20037;-62
2021/09/19 10:16:18;;;;;;;6.82;6.13;;;;;;;18.40;64.84;101639.66;5058136;28;20045;-62
2021/09/19 10:18:48;;;;;;;8.32;6.85;;;;;;;18.31;63.23;101644.22;5061839;28;20093;-61
2021/09/19 10:21:18;;;;;;;6.82;6.10;;;;;;;18.31;64.17;101644.22;5062137;28;20106;-61
2021/09/19 10:23:46;;;;;;;6.63;6.03;;;;;;;18.34;65.26;101640.66;5058943;28;20160;-62
2021/09/19 10:26:13;;;;;;;9.20;6.60;;;;;;;18.41;65.19;101639.63;5057620;28;20049;-62
2021/09/19 10:28:40;;;;;;;6.63;5.93;;;;;;;18.45;63.80;101637.72;5059830;28;20068;-61
2021/09/19 10:31:12;;;;;;;7.50;6.80;;;;;;;18.43;64.06;101631.56;5055620;28;20124;-61
2021/09/19 10:33:38;;;;;;;7.63;6.93;;;;;;;18.41;63.87;101633.41;5062479;28;20029;-60
2021/09/19 10:36:11;;;;;;;9.23;6.75;;;;;;;18.35;64.27;101630.88;5063420;28;20049;-61
2021/09/19 10:38:39;;;;;;;6.70;6.05;;;;;;;18.44;64.46;101636.00;5053320;28;20025;-60
2021/09/19 10:41:19;;;;;;;7.10;6.40;;;;;;;18.48;65.24;101629.69;5061768;28;20452;-60
2021/09/19 10:43:54;;;;;;;7.68;6.68;;;;;;;18.54;63.99;101631.34;5060621;28;20128;-61
2021/09/19 10:46:34;;;;;;;8.02;7.22;;;;;;;18.50;64.48;101633.19;5057780;28;20021;-62
2021/09/19 10:49:16;;;;;;;8.98;7.50;;;;;;;18.46;64.53;101629.72;5059690;28;20029;-61
2021/09/19 10:52:00;;;;;;;7.65;6.60;;;;;;;18.44;64.63;101626.22;5060354;28;20027;-60
2021/09/19 10:54:45;;;;;;;7.85;6.47;;;;;;;18.49;64.44;101620.81;5060214;28;20044;-62
2021/09/19 10:57:28;;;;;;;8.60;5.97;;;;;;;18.57;64.80;101625.97;5060812;28;20110;-60
2021/09/19 11:00:12;;;;;;;7.25;6.50;;;;;;;18.58;64.70;101620.63;5060698;28;20021;-60
2021/09/19 11:02:42;;;;;;;8.75;6.00;;;;;;;18.63;64.66;101626.69;5062852;28;20032;-59
2021/09/19 11:05:28;;;;;;;8.93;8.10;;;;;;;18.61;63.36;101624.97;5063257;28;20215;-60
2021/09/19 11:08:14;;;;;;;8.55;7.38;;;;;;;18.60;64.16;101623.22;5062284;28;20033;-62
2021/09/19 11:10:45;;;;;;;8.05;6.78;;;;;;;18.66;65.62;101621.31;5062667;28;20052;-61
2021/09/19 11:13:20;;;;;;;7.15;6.15;;;;;;;18.67;64.38;101625.69;5061410;28;20067;-61